Time;durP1;ratioP1;P1;durP2;ratioP2;P2;SDS_P1;SDS_P2;PMS_P1;PMS_P2;Temp;Humidity;BMP_temperature;BMP_pressure;BME280_temperature;BME280_humidity;BME280_pressure;Samples;Min_cycle;Max_cycle;Signal;HPM_P1;HPM_P2
2022/05/10 08:08:36;;;;;;;8.43;6.28;;;;;;;;;;5592507;23;20073;-77
2022/05/10 08:11:04;;;;;;;10.07;6.10;;;;;;;;;;4957188;28;20073;-77
2022/05/10 08:13:31;;;;;;;7.80;6.07;;;;;;;;;;4974385;28;20073;-79
2022/05/10 08:54:37;;;;;;;8.93;6.13;;;;;;;;;;4976958;28;20505;-77
2022/05/10 08:57:37;;;;;;;10.00;5.47;;;;;;;;;;4960717;28;20026;-82
2022/05/10 09:00:07;;;;;;;7.45;5.78;;;;;;;;;;4918263;29;20469;-79
2022/05/10 09:02:47;;;;;;;8.32;5.85;;;;;;;;;;4918506;29;20040;-80
2022/05/10 09:05:24;;;;;;;9.10;6.18;;;;;;;;;;4918729;29;20111;-85
2022/05/10 09:07:59;;;;;;;7.13;5.47;;;;;;;;;;4918455;29;20106;-78
2022/05/10 09:10:44;;;;;;;9.35;5.70;;;;;;;;;;4918167;29;20024;-79
2022/05/10 09:13:13;;;;;;;8.38;5.72;;;;;;;;;;4918339;29;20028;-79
2022/05/10 09:16:04;;;;;;;8.00;5.90;;;;;;;;;;4918137;29;20039;-79
2022/05/10 09:18:51;;;;;;;11.20;5.97;;;;;;;;;;4918325;29;20036;-79
2022/05/10 09:21:26;;;;;;;6.43;5.82;;;;;;;;;;4917719;29;20043;-79
2022/05/10 09:24:36;;;;;;;9.90;6.47;;;;;;;;;;4918306;29;20108;-79
2022/05/10 09:27:09;;;;;;;6.72;5.80;;;;;;;;;;4913493;29;20040;-81
2022/05/10 09:29:47;;;;;;;10.98;5.78;;;;;;;;;;4917777;29;20072;-81
2022/05/10 09:35:09;;;;;;;9.68;6.00;;;;;;;;;;4917860;29;20139;-81
2022/05/10 09:37:58;;;;;;;10.05;6.03;;;;;;;;;;4958718;28;20039;-81
2022/05/10 09:40:34;;;;;;;9.05;5.60;;;;;;;;;;4977348;28;20105;-80
2022/05/10 09:43:23;;;;;;;8.23;6.50;;;;;;;;;;4959919;28;20121;-81
2022/05/10 09:46:17;;;;;;;13.45;6.93;;;;;;;;;;4977431;28;20026;-81
2022/05/10 09:48:44;;;;;;;9.30;6.47;;;;;;;;;;4977116;28;20026;-81
2022/05/10 09:51:31;;;;;;;12.93;6.38;;;;;;;;;;4977113;28;20031;-82
2022/05/10 09:53:57;;;;;;;7.82;6.68;;;;;;;;;;4976797;28;20129;-82
2022/05/10 09:56:41;;;;;;;9.90;7.05;;;;;;;;;;4977059;28;20429;-79
2022/05/10 09:59:22;;;;;;;13.77;6.70;;;;;;;;;;4976932;28;20066;-77
2022/05/10 10:01:50;;;;;;;9.38;6.80;;;;;;;;;;4976539;28;20372;-78
2022/05/10 10:04:18;;;;;;;8.00;5.93;;;;;;;;;;4976835;28;20058;-79
2022/05/10 10:06:43;;;;;;;9.27;7.05;;;;;;;;;;4976934;28;20027;-78
2022/05/10 10:09:08;;;;;;;9.50;6.53;;;;;;;;;;4976764;28;20015;-78
2022/05/10 10:11:38;;;;;;;9.35;6.30;;;;;;;;;;4976567;28;20037;-80
2022/05/10 10:14:07;;;;;;;9.13;6.43;;;;;;;;;;4976473;28;20034;-79
2022/05/10 10:16:40;;;;;;;9.85;6.57;;;;;;;;;;4975786;28;20102;-78
2022/05/10 10:19:11;;;;;;;8.18;6.15;;;;;;;;;;4976515;28;20469;-78
2022/05/10 10:21:46;;;;;;;9.38;7.13;;;;;;;;;;4976664;28;20029;-76
2022/05/10 10:24:22;;;;;;;10.85;6.85;;;;;;;;;;4976265;28;20066;-75
2022/05/10 10:27:02;;;;;;;8.05;6.20;;;;;;;;;;4976391;28;20470;-76
2022/05/10 10:29:49;;;;;;;7.97;6.30;;;;;;;;;;4959039;28;20026;-76
2022/05/10 10:32:21;;;;;;;7.68;6.28;;;;;;;;;;4976214;28;20520;-77
2022/05/10 10:35:02;;;;;;;8.82;6.03;;;;;;;;;;4976145;28;20063;-77
2022/05/10 10:37:34;;;;;;;10.73;6.97;;;;;;;;;;4976479;28;20033;-77
2022/05/10 10:40:27;;;;;;;8.80;6.38;;;;;;;;;;4976328;28;20374;-80
2022/05/10 10:43:08;;;;;;;7.57;5.95;;;;;;;;;;4956697;28;20023;-80
2022/05/10 10:46:10;;;;;;;6.20;5.60;;;;;;;;;;4939633;29;20054;-80
2022/05/10 10:48:49;;;;;;;10.43;6.40;;;;;;;;;;4916603;29;20465;-81
2022/05/10 10:51:15;;;;;;;7.10;5.55;;;;;;;;;;4956545;28;20031;-81
2022/05/10 10:53:43;;;;;;;9.20;5.90;;;;;;;;;;4939068;29;20043;-80
2022/05/10 10:56:14;;;;;;;8.73;5.70;;;;;;;;;;4956676;28;20110;-80
2022/05/10 10:59:31;;;;;;;7.18;5.68;;;;;;;;;;4939194;29;20090;-80
2022/05/10 11:02:05;;;;;;;8.75;5.68;;;;;;;;;;4923861;29;20035;-81
2022/05/10 11:04:52;;;;;;;7.53;5.63;;;;;;;;;;4956742;29;20497;-80
2022/05/10 11:07:30;;;;;;;7.82;5.18;;;;;;;;;;4957368;28;20500;-81
2022/05/10 11:10:10;;;;;;;8.45;5.43;;;;;;;;;;4975766;28;20027;-81
2022/05/10 11:12:52;;;;;;;7.88;5.60;;;;;;;;;;4975047;28;20085;-81
2022/05/10 11:15:40;;;;;;;10.18;5.72;;;;;;;;;;4970067;28;20038;-81
2022/05/10 11:18:11;;;;;;;9.70;6.03;;;;;;;;;;4956228;29;20371;-80
2022/05/10 11:20:51;;;;;;;7.15;5.50;;;;;;;;;;4955930;28;20034;-80
2022/05/10 11:23:37;;;;;;;7.43;5.82;;;;;;;;;;4956145;29;20024;-80
2022/05/10 11:26:35;;;;;;;6.35;5.65;;;;;;;;;;4956004;29;20030;-80
2022/05/10 11:29:23;;;;;;;9.40;5.53;;;;;;;;;;4938722;29;20029;-80
2022/05/10 11:32:04;;;;;;;6.57;5.43;;;;;;;;;;4946444;28;20031;-80
2022/05/10 11:34:36;;;;;;;9.93;6.20;;;;;;;;;;4975209;28;20433;-80
2022/05/10 11:37:05;;;;;;;8.05;6.03;;;;;;;;;;4975326;28;20433;-81
2022/05/10 11:39:50;;;;;;;8.25;5.40;;;;;;;;;;4975073;28;20085;-80
2022/05/10 11:42:32;;;;;;;8.00;5.43;;;;;;;;;;4961906;28;20054;-80
2022/05/10 17:00:43;;;;;;;10.82;5.55;;;;;;;;;;4912991;29;20507;-79
2022/05/10 17:03:10;;;;;;;9.60;5.72;;;;;;;;;;4917000;29;20111;-78
2022/05/10 17:05:35;;;;;;;15.00;8.15;;;;;;;;;;4916993;29;20360;-78
2022/05/10 17:08:01;;;;;;;11.38;6.60;;;;;;;;;;4929847;29;20028;-79
2022/05/10 17:10:28;;;;;;;9.35;6.10;;;;;;;;;;4936245;29;20028;-79
2022/05/10 17:12:54;;;;;;;9.13;6.07;;;;;;;;;;4939618;29;20039;-79
2022/05/10 17:15:20;;;;;;;6.55;4.85;;;;;;;;;;4939600;29;20386;-79
2022/05/10 17:17:45;;;;;;;7.97;5.38;;;;;;;;;;4939168;29;20027;-79
2022/05/10 17:20:14;;;;;;;10.02;5.95;;;;;;;;;;4939232;29;20032;-79
2022/05/10 17:22:45;;;;;;;7.10;5.03;;;;;;;;;;4922065;29;20028;-79
2022/05/10 17:25:13;;;;;;;8.23;5.82;;;;;;;;;;4939135;29;20363;-79
2022/05/10 17:27:47;;;;;;;7.63;5.60;;;;;;;;;;4939037;29;20032;-78
2022/05/10 17:30:13;;;;;;;8.70;4.85;;;;;;;;;;4939404;29;20114;-78
2022/05/10 17:32:39;;;;;;;10.20;5.25;;;;;;;;;;4938878;29;20355;-78
2022/05/10 17:35:05;;;;;;;10.38;5.32;;;;;;;;;;4938038;29;20035;-79
2022/05/10 17:37:30;;;;;;;6.97;5.00;;;;;;;;;;4938537;29;20047;-78
2022/05/10 17:39:55;;;;;;;6.10;5.18;;;;;;;;;;4938852;29;20023;-77
2022/05/10 17:42:22;;;;;;;7.93;5.40;;;;;;;;;;4938790;29;20035;-79
2022/05/10 17:44:47;;;;;;;7.55;5.05;;;;;;;;;;4938832;29;20494;-78
2022/05/10 17:47:13;;;;;;;7.57;5.43;;;;;;;;;;4938709;29;20032;-78
2022/05/10 17:49:41;;;;;;;6.38;4.75;;;;;;;;;;4938824;29;20031;-78
2022/05/10 17:52:08;;;;;;;10.47;6.10;;;;;;;;;;4920881;29;20074;-78
2022/05/10 17:54:33;;;;;;;6.32;4.80;;;;;;;;;;4937856;29;20386;-79
2022/05/10 17:56:59;;;;;;;9.30;4.97;;;;;;;;;;4938081;29;20019;-83
2022/05/10 17:59:25;;;;;;;8.35;5.68;;;;;;;;;;4938527;29;20032;-81
2022/05/10 18:01:51;;;;;;;7.60;4.93;;;;;;;;;;4938343;29;20046;-80
2022/05/10 18:04:16;;;;;;;7.03;4.88;;;;;;;;;;4938293;29;20035;-79
2022/05/10 18:06:42;;;;;;;6.03;5.03;;;;;;;;;;4938656;29;20032;-82
2022/05/10 18:09:07;;;;;;;12.50;5.65;;;;;;;;;;4938605;29;20028;-78
2022/05/10 18:11:34;;;;;;;8.93;5.20;;;;;;;;;;4938337;29;20028;-80
2022/05/10 18:14:00;;;;;;;10.00;5.32;;;;;;;;;;4938045;29;20122;-80
2022/05/10 18:16:26;;;;;;;7.70;5.65;;;;;;;;;;4938243;29;20522;-82
2022/05/10 18:18:54;;;;;;;9.23;5.82;;;;;;;;;;4938060;29;20091;-79
2022/05/10 18:21:21;;;;;;;9.13;5.55;;;;;;;;;;4937958;29;20463;-79
2022/05/10 18:23:46;;;;;;;7.30;5.00;;;;;;;;;;4938036;29;20028;-80
2022/05/10 18:26:13;;;;;;;8.50;5.10;;;;;;;;;;4938097;29;20035;-80
2022/05/10 18:28:40;;;;;;;5.68;5.07;;;;;;;;;;4937276;29;20071;-80
2022/05/10 18:31:06;;;;;;;9.15;5.47;;;;;;;;;;4937779;29;20146;-80
2022/05/10 18:33:32;;;;;;;7.43;5.32;;;;;;;;;;4937759;29;20057;-82
2022/05/10 18:36:00;;;;;;;11.13;5.20;;;;;;;;;;4938067;29;20039;-80
2022/05/10 18:38:27;;;;;;;9.40;5.53;;;;;;;;;;4937648;29;20118;-80
2022/05/10 18:40:53;;;;;;;8.35;5.32;;;;;;;;;;4937720;29;20103;-80
2022/05/10 18:43:20;;;;;;;11.05;5.57;;;;;;;;;;4937873;29;20574;-82
2022/05/10 18:45:46;;;;;;;8.23;5.43;;;;;;;;;;4937744;29;20080;-81
2022/05/10 18:48:12;;;;;;;10.32;5.68;;;;;;;;;;4937286;29;20118;-81
2022/05/10 18:50:39;;;;;;;10.02;4.90;;;;;;;;;;4937801;29;20102;-81
2022/05/10 18:53:04;;;;;;;6.80;4.93;;;;;;;;;;4937704;29;20471;-81
2022/05/10 18:55:30;;;;;;;9.60;4.80;;;;;;;;;;4937403;29;20035;-81
2022/05/10 18:57:57;;;;;;;7.88;5.25;;;;;;;;;;4937293;29;20080;-81
2022/05/10 19:00:25;;;;;;;6.68;5.07;;;;;;;;;;4920700;29;20039;-80
2022/05/10 19:02:54;;;;;;;10.70;5.43;;;;;;;;;;4937247;29;20027;-79
2022/05/10 19:05:23;;;;;;;6.57;5.05;;;;;;;;;;4937395;29;20579;-80
2022/05/10 19:07:49;;;;;;;11.13;5.47;;;;;;;;;;4937209;29;20032;-80
2022/05/10 19:10:15;;;;;;;10.90;5.85;;;;;;;;;;4937244;29;20111;-80
2022/05/10 19:12:40;;;;;;;7.80;5.25;;;;;;;;;;4937195;29;20027;-80
2022/05/10 19:15:08;;;;;;;7.25;5.03;;;;;;;;;;4936780;29;20028;-80
2022/05/10 19:17:35;;;;;;;8.18;5.30;;;;;;;;;;4936966;29;20027;-81
2022/05/10 19:20:02;;;;;;;7.88;4.60;;;;;;;;;;4937082;29;20028;-80
2022/05/10 19:22:28;;;;;;;8.07;5.18;;;;;;;;;;4936920;29;20020;-80
2022/05/10 19:24:56;;;;;;;13.18;5.63;;;;;;;;;;4919659;29;20039;-81
2022/05/10 19:27:23;;;;;;;11.48;5.25;;;;;;;;;;4936762;29;20079;-81
2022/05/10 19:29:48;;;;;;;11.27;5.60;;;;;;;;;;4936568;29;20028;-84
2022/05/10 19:32:14;;;;;;;10.15;5.20;;;;;;;;;;4920140;29;20067;-80
2022/05/10 19:34:39;;;;;;;9.63;5.13;;;;;;;;;;4936165;29;20383;-80
2022/05/10 19:37:06;;;;;;;9.75;5.22;;;;;;;;;;4936742;29;20024;-80
2022/05/10 19:39:32;;;;;;;7.85;5.05;;;;;;;;;;4936660;29;20471;-78
2022/05/10 19:41:57;;;;;;;8.88;5.25;;;;;;;;;;4936895;29;20054;-79
2022/05/10 19:44:23;;;;;;;7.88;5.30;;;;;;;;;;4936350;29;20046;-79
2022/05/10 19:46:48;;;;;;;7.22;4.75;;;;;;;;;;4936762;29;20027;-80
2022/05/10 19:49:14;;;;;;;10.55;5.50;;;;;;;;;;4936765;29;20035;-80
2022/05/10 19:51:39;;;;;;;8.10;4.70;;;;;;;;;;4936394;29;20359;-79
2022/05/10 19:54:05;;;;;;;9.63;5.22;;;;;;;;;;4936559;29;20051;-77
2022/05/10 19:56:31;;;;;;;8.10;4.90;;;;;;;;;;4936881;29;20490;-77
2022/05/10 19:58:57;;;;;;;8.45;5.00;;;;;;;;;;4936511;29;20513;-78
2022/05/10 20:06:51;;;;;;;5.88;5.28;;;;;;;;;;4936535;29;20435;-82
2022/05/10 20:09:17;;;;;;;6.80;4.80;;;;;;;;;;4936323;29;20034;-83
2022/05/10 20:11:45;;;;;;;7.13;5.07;;;;;;;;;;4936555;29;20452;-79
2022/05/10 20:14:11;;;;;;;8.43;4.85;;;;;;;;;;4936308;29;20035;-79
2022/05/10 20:16:37;;;;;;;6.15;4.90;;;;;;;;;;4936421;29;20083;-80
2022/05/10 20:19:04;;;;;;;8.27;5.53;;;;;;;;;;4936160;29;20056;-79
2022/05/10 20:21:29;;;;;;;8.38;5.82;;;;;;;;;;4936261;29;20099;-80
2022/05/10 20:23:55;;;;;;;6.82;5.50;;;;;;;;;;4936103;29;20467;-79
2022/05/10 20:26:22;;;;;;;7.38;4.85;;;;;;;;;;4936037;29;20390;-76
2022/05/10 20:28:48;;;;;;;10.45;4.85;;;;;;;;;;4936203;29;20478;-76
2022/05/10 20:31:14;;;;;;;5.30;4.80;;;;;;;;;;4936264;29;20070;-76
2022/05/10 20:33:40;;;;;;;7.22;4.82;;;;;;;;;;4936393;29;20403;-76
2022/05/10 20:36:07;;;;;;;7.80;4.90;;;;;;;;;;4936177;29;20032;-77
2022/05/10 20:38:32;;;;;;;6.68;5.38;;;;;;;;;;4936009;29;20079;-77
2022/05/10 20:40:58;;;;;;;9.20;5.72;;;;;;;;;;4936305;29;20118;-79
2022/05/10 20:43:24;;;;;;;5.82;5.25;;;;;;;;;;4936117;29;20110;-82
2022/05/10 20:45:49;;;;;;;7.72;5.22;;;;;;;;;;4938815;29;20063;-80
2022/05/10 20:48:14;;;;;;;6.45;5.40;;;;;;;;;;4939820;29;20028;-83
2022/05/10 20:50:42;;;;;;;7.28;5.25;;;;;;;;;;4939896;29;20036;-83
2022/05/10 20:53:08;;;;;;;9.23;5.03;;;;;;;;;;4939930;29;20062;-78
2022/05/10 20:55:35;;;;;;;6.65;4.68;;;;;;;;;;4939810;29;20075;-82
2022/05/10 20:58:00;;;;;;;9.95;5.05;;;;;;;;;;4939664;29;20106;-79
2022/05/10 21:00:28;;;;;;;9.10;4.90;;;;;;;;;;4939454;29;20494;-83
2022/05/10 21:02:54;;;;;;;6.30;5.47;;;;;;;;;;4939582;29;20039;-79
2022/05/10 21:05:23;;;;;;;9.27;4.90;;;;;;;;;;4939449;29;20023;-82
2022/05/10 21:10:43;;;;;;;7.35;5.80;;;;;;;;;;4913059;29;20086;-79
2022/05/10 21:13:10;;;;;;;6.18;4.90;;;;;;;;;;4939266;29;20502;-79
2022/05/10 21:15:36;;;;;;;6.50;4.90;;;;;;;;;;4939412;29;20083;-78
2022/05/10 21:18:02;;;;;;;10.48;5.85;;;;;;;;;;4939296;29;20028;-82
2022/05/10 21:20:28;;;;;;;9.32;5.00;;;;;;;;;;4939412;29;20035;-81
2022/05/10 21:22:53;;;;;;;8.00;5.00;;;;;;;;;;4939121;29;20027;-79
2022/05/10 21:25:19;;;;;;;8.32;5.25;;;;;;;;;;4939217;29;20459;-78
2022/05/10 21:27:44;;;;;;;7.03;5.20;;;;;;;;;;4938948;29;20023;-79
2022/05/10 21:33:05;;;;;;;9.50;6.00;;;;;;;;;;4939088;29;20169;-81
2022/05/10 21:35:34;;;;;;;8.23;5.15;;;;;;;;;;4939041;29;20031;-82
2022/05/10 21:38:00;;;;;;;6.30;5.10;;;;;;;;;;4938971;29;20449;-81
2022/05/10 21:40:26;;;;;;;6.40;5.68;;;;;;;;;;4938789;29;20056;-81
2022/05/10 21:42:52;;;;;;;10.55;5.30;;;;;;;;;;4938916;29;20051;-78
2022/05/10 21:45:17;;;;;;;8.90;5.10;;;;;;;;;;4938967;29;20127;-81
2022/05/10 21:47:43;;;;;;;9.27;5.93;;;;;;;;;;4938565;29;20028;-81
2022/05/10 21:50:19;;;;;;;8.13;5.25;;;;;;;;;;4921451;29;20031;-82
2022/05/10 21:52:45;;;;;;;9.50;5.72;;;;;;;;;;4938820;29;20127;-82
2022/05/10 21:55:10;;;;;;;8.27;5.72;;;;;;;;;;4938621;29;20107;-81
2022/05/10 21:57:36;;;;;;;6.47;5.78;;;;;;;;;;4937968;29;20028;-80
2022/05/10 22:00:16;;;;;;;9.85;5.60;;;;;;;;;;4938587;29;20432;-81
2022/05/10 22:02:42;;;;;;;9.45;5.35;;;;;;;;;;4919507;29;20104;-81
2022/05/10 22:05:08;;;;;;;8.27;5.68;;;;;;;;;;4919404;29;20028;-81
2022/05/10 22:07:34;;;;;;;11.15;5.97;;;;;;;;;;4919231;29;20032;-78
2022/05/10 22:10:00;;;;;;;7.88;5.82;;;;;;;;;;4919487;29;20020;-81
